createdAt,value
2019-01-24T00:02:21.467Z,29.10
2019-01-24T00:04:51.293Z,28.30
2019-01-24T00:07:19.522Z,31.00
2019-01-24T00:09:47.656Z,29.90
2019-01-24T00:12:15.941Z,29.60
2019-01-24T00:14:44.122Z,29.97
2019-01-24T00:17:12.429Z,29.53
2019-01-24T00:19:40.603Z,29.33
2019-01-24T00:22:08.734Z,30.73
2019-01-24T00:24:37.028Z,29.13
2019-01-24T00:27:05.148Z,29.33
2019-01-24T00:29:34.006Z,29.30
2019-01-24T00:32:02.168Z,30.37
2019-01-24T00:34:30.351Z,28.47
2019-01-24T00:36:58.516Z,28.07
2019-01-24T00:39:26.705Z,30.57
2019-01-24T00:41:54.855Z,29.57
2019-01-24T00:44:23.024Z,30.37
2019-01-24T00:46:52.781Z,29.33
2019-01-24T00:49:21.006Z,29.30
2019-01-24T00:52:08.547Z,28.60
2019-01-24T00:54:36.772Z,30.13
2019-01-24T00:57:04.981Z,30.40
2019-01-24T00:59:33.157Z,28.97
2019-01-24T01:02:01.312Z,31.00
2019-01-24T01:04:29.850Z,29.43
2019-01-24T01:06:58.322Z,34.73
2019-01-24T01:09:26.474Z,31.48
2019-01-24T01:11:57.675Z,31.43
2019-01-24T01:14:25.840Z,32.90
2019-01-24T01:16:54.029Z,33.53
2019-01-24T01:19:22.084Z,32.47
2019-01-24T01:21:50.212Z,33.57
2019-01-24T01:24:18.304Z,31.77
2019-01-24T01:26:46.357Z,31.07
2019-01-24T01:29:14.501Z,33.20
2019-01-24T01:31:42.595Z,30.20
2019-01-24T01:34:12.539Z,32.13
2019-01-24T01:36:41.009Z,32.98
2019-01-24T01:39:09.165Z,32.07
2019-01-24T01:41:38.075Z,30.83
2019-01-24T01:44:06.147Z,33.20
2019-01-24T01:46:37.239Z,31.70
2019-01-24T01:49:05.412Z,32.50
2019-01-24T01:51:33.673Z,30.30
2019-01-24T01:54:04.622Z,30.55
2019-01-24T01:56:32.974Z,31.77
2019-01-24T01:59:01.924Z,36.63
2019-01-24T02:01:29.966Z,31.37
2019-01-24T02:03:58.075Z,31.27
2019-01-24T02:06:26.107Z,32.50
2019-01-24T02:08:54.188Z,31.57
2019-01-24T02:11:22.215Z,33.30
2019-01-24T02:13:50.298Z,31.30
2019-01-24T02:16:18.438Z,30.30
2019-01-24T02:18:46.460Z,30.13
2019-01-24T02:21:14.754Z,31.90
2019-01-24T02:23:42.791Z,30.57
2019-01-24T02:26:10.848Z,29.90
2019-01-24T02:28:38.876Z,29.87
2019-01-24T02:31:06.910Z,30.73
2019-01-24T02:33:35.475Z,31.37
2019-01-24T02:36:04.627Z,30.97
2019-01-24T02:38:32.750Z,29.33
2019-01-24T02:41:01.109Z,29.83
2019-01-24T02:43:29.265Z,29.47
2019-01-24T02:45:57.394Z,29.77
2019-01-24T02:48:25.613Z,31.90
2019-01-24T02:50:53.851Z,31.67
2019-01-24T02:53:21.971Z,28.60
2019-01-24T02:55:50.012Z,31.37
2019-01-24T02:58:18.093Z,30.97
2019-01-24T03:00:46.164Z,30.83
2019-01-24T03:03:15.840Z,31.57
2019-01-24T03:05:43.853Z,33.43
2019-01-24T03:08:12.057Z,30.48
2019-01-24T03:10:40.166Z,32.03
2019-01-24T03:13:08.921Z,27.77
2019-01-24T03:15:37.198Z,28.27
2019-01-24T03:18:05.442Z,32.30
2019-01-24T03:20:33.597Z,32.97
2019-01-24T03:23:01.783Z,33.20
2019-01-24T03:25:30.008Z,30.70
2019-01-24T03:27:58.231Z,31.13
2019-01-24T03:30:27.066Z,29.30
2019-01-24T03:32:55.187Z,29.13
2019-01-24T03:35:24.315Z,30.27
2019-01-24T03:37:52.511Z,30.37
2019-01-24T03:40:20.634Z,31.23
2019-01-24T03:42:48.755Z,28.87
2019-01-24T03:45:17.186Z,29.70
2019-01-24T03:47:45.261Z,29.90
2019-01-24T03:50:16.665Z,30.83
2019-01-24T03:52:45.458Z,29.63
2019-01-24T03:55:14.421Z,29.53
2019-01-24T03:57:42.862Z,29.53
2019-01-24T04:00:17.827Z,30.80
2019-01-24T04:02:46.073Z,30.97
2019-01-24T04:05:14.226Z,30.63
2019-01-24T04:07:42.381Z,29.17
2019-01-24T04:10:11.897Z,35.13
2019-01-24T04:12:40.017Z,29.47
2019-01-24T04:15:09.811Z,28.97
2019-01-24T04:17:37.993Z,30.80
2019-01-24T04:20:07.355Z,31.23
2019-01-24T04:22:35.680Z,30.90
2019-01-24T04:25:04.546Z,29.83
2019-01-24T04:27:32.722Z,30.85
2019-01-24T04:30:00.803Z,28.52
2019-01-24T04:32:28.864Z,31.87
2019-01-24T04:34:57.000Z,30.80
2019-01-24T04:37:26.741Z,31.60
2019-01-24T04:39:54.797Z,32.37
2019-01-24T04:42:22.930Z,32.07
2019-01-24T04:44:51.063Z,32.00
2019-01-24T04:47:19.085Z,31.40
2019-01-24T04:49:47.226Z,34.47
2019-01-24T04:52:15.346Z,31.67
2019-01-24T04:54:43.408Z,31.93
2019-01-24T04:57:11.520Z,32.07
2019-01-24T04:59:40.422Z,33.20
2019-01-24T05:02:08.454Z,31.33
2019-01-24T05:04:36.552Z,32.37
2019-01-24T05:07:04.631Z,30.65
2019-01-24T05:09:32.711Z,29.93
2019-01-24T05:12:00.812Z,33.60
2019-01-24T05:14:28.907Z,33.13
2019-01-24T05:16:58.670Z,33.00
2019-01-24T05:19:26.879Z,34.17
2019-01-24T05:21:55.086Z,33.37
2019-01-24T05:24:23.140Z,34.53
2019-01-24T05:26:51.354Z,33.67
2019-01-24T05:29:19.425Z,34.50
2019-01-24T05:31:47.591Z,33.80
2019-01-24T05:34:18.667Z,32.33
2019-01-24T05:36:46.760Z,32.43
2019-01-24T05:39:15.558Z,31.03
2019-01-24T05:41:43.628Z,30.68
2019-01-24T05:44:11.731Z,31.47
2019-01-24T05:46:41.388Z,31.73
2019-01-24T05:49:09.508Z,32.23
2019-01-24T05:51:37.695Z,29.98
2019-01-24T05:54:05.855Z,31.37
2019-01-24T05:59:08.168Z,32.07
2019-01-24T06:01:36.831Z,32.73
2019-01-24T06:04:06.089Z,32.07
2019-01-24T06:06:34.337Z,31.87
2019-01-24T06:09:02.368Z,31.57
2019-01-24T06:11:30.466Z,32.27
2019-01-24T06:13:58.644Z,32.55
2019-01-24T06:16:26.704Z,32.70
2019-01-24T06:18:54.801Z,32.40
2019-01-24T06:21:23.094Z,33.10
2019-01-24T06:23:51.244Z,32.23
2019-01-24T06:26:19.279Z,32.73
2019-01-24T06:28:47.352Z,31.55
2019-01-24T06:31:15.399Z,33.43
2019-01-24T06:33:43.445Z,31.80
2019-01-24T06:36:11.594Z,33.00
2019-01-24T06:38:39.720Z,33.57
2019-01-24T06:41:07.806Z,31.40
2019-01-24T06:43:35.991Z,32.10
2019-01-24T06:46:04.083Z,32.47
2019-01-24T06:48:32.264Z,36.17
2019-01-24T06:51:00.392Z,34.13
2019-01-24T06:53:28.574Z,34.20
2019-01-24T06:55:56.686Z,34.73
2019-01-24T06:58:24.743Z,34.57
2019-01-24T07:00:52.825Z,34.93
2019-01-24T07:03:20.907Z,35.20
2019-01-24T07:05:55.206Z,35.47
2019-01-24T07:08:18.800Z,34.30
2019-01-24T07:10:46.874Z,32.77
2019-01-24T07:13:15.183Z,33.43
2019-01-24T07:15:43.408Z,35.87
2019-01-24T07:18:11.489Z,34.63
2019-01-24T07:20:39.603Z,34.83
2019-01-24T07:23:07.691Z,33.00
2019-01-24T07:25:35.747Z,34.57
2019-01-24T07:28:03.888Z,36.80
2019-01-24T07:30:31.969Z,34.07
2019-01-24T07:33:07.120Z,35.48
2019-01-24T07:35:35.138Z,34.87
2019-01-24T07:38:03.272Z,34.20
2019-01-24T07:40:31.389Z,34.87
2019-01-24T07:42:59.500Z,35.83
2019-01-24T07:45:28.937Z,33.43
2019-01-24T07:47:57.118Z,33.10
2019-01-24T07:50:25.146Z,36.80
2019-01-24T07:52:53.246Z,36.23
2019-01-24T07:55:21.384Z,35.60
2019-01-24T07:57:49.559Z,34.10
2019-01-24T08:00:21.875Z,34.17
2019-01-24T08:02:49.956Z,34.03
2019-01-24T08:05:18.056Z,34.90
2019-01-24T08:07:46.101Z,34.05
2019-01-24T08:10:15.288Z,32.47
2019-01-24T08:12:43.539Z,36.08
2019-01-24T08:15:12.568Z,34.57
2019-01-24T08:17:40.903Z,33.90
2019-01-24T08:20:13.132Z,35.25
2019-01-24T08:22:41.163Z,36.00
2019-01-24T08:25:09.569Z,36.47
2019-01-24T08:27:37.710Z,34.93
2019-01-24T08:30:07.454Z,33.50
2019-01-24T08:32:35.461Z,38.13
2019-01-24T08:35:04.517Z,36.53
2019-01-24T08:37:32.527Z,35.30
2019-01-24T08:40:00.597Z,35.38
2019-01-24T08:42:29.258Z,35.97
2019-01-24T08:44:57.344Z,37.37
2019-01-24T08:47:25.394Z,36.15
2019-01-24T08:49:53.494Z,35.67
2019-01-24T08:52:21.518Z,36.48
2019-01-24T08:54:49.545Z,33.85
2019-01-24T08:57:17.607Z,34.83
2019-01-24T08:59:45.616Z,36.80
2019-01-24T09:02:13.668Z,37.27
2019-01-24T09:04:43.412Z,36.03
2019-01-24T09:07:11.561Z,36.25
2019-01-24T09:09:41.219Z,34.10
2019-01-24T09:12:09.341Z,33.17
2019-01-24T09:14:37.476Z,34.07
2019-01-24T09:17:05.517Z,33.97
2019-01-24T09:19:33.814Z,35.75
2019-01-24T09:22:01.970Z,34.93
2019-01-24T09:24:30.072Z,33.90
2019-01-24T09:26:58.556Z,36.13
2019-01-24T09:29:26.606Z,32.40
2019-01-24T09:31:54.672Z,35.13
2019-01-24T09:34:22.699Z,37.30
2019-01-24T09:36:50.829Z,35.67
2019-01-24T09:39:21.776Z,35.00
2019-01-24T09:41:49.906Z,36.93
2019-01-24T09:44:18.021Z,36.20
2019-01-24T09:46:46.108Z,38.03
2019-01-24T09:49:14.239Z,37.45
2019-01-24T09:51:42.376Z,36.60
2019-01-24T09:54:15.652Z,35.57
2019-01-24T09:56:43.739Z,38.17
2019-01-24T09:59:11.856Z,36.67
2019-01-24T10:01:39.940Z,39.53
2019-01-24T10:04:08.043Z,37.17
2019-01-24T10:06:36.553Z,38.40
2019-01-24T10:09:05.754Z,39.10
2019-01-24T10:11:33.800Z,37.77
2019-01-24T10:14:03.523Z,38.00
2019-01-24T10:16:31.755Z,38.55
2019-01-24T10:18:59.956Z,36.77
2019-01-24T10:21:28.041Z,37.47
2019-01-24T10:23:56.135Z,39.07
2019-01-24T10:26:24.192Z,37.97
2019-01-24T10:28:52.215Z,40.50
2019-01-24T10:31:20.309Z,40.10
2019-01-24T10:33:48.356Z,40.98
2019-01-24T10:36:16.435Z,39.13
2019-01-24T10:38:44.592Z,40.93
2019-01-24T10:41:14.400Z,39.70
2019-01-24T10:43:42.617Z,38.30
2019-01-24T10:46:21.338Z,40.07
2019-01-24T10:48:49.828Z,40.10
2019-01-24T10:51:17.873Z,38.13
2019-01-24T10:53:59.823Z,41.47
2019-01-24T10:56:17.483Z,40.13
2019-01-24T11:01:43.567Z,40.53
2019-01-24T11:04:20.072Z,42.33
2019-01-24T11:06:55.267Z,40.73
2019-01-24T11:09:28.159Z,41.07
2019-01-24T11:11:59.286Z,40.70
2019-01-24T11:14:28.904Z,39.05
2019-01-24T11:17:01.213Z,37.97
2019-01-24T11:19:45.946Z,39.38
2019-01-24T11:22:22.762Z,40.83
2019-01-24T11:24:52.685Z,40.53
2019-01-24T11:27:26.036Z,41.20
2019-01-24T11:29:57.278Z,40.20
2019-01-24T11:32:33.893Z,43.87
2019-01-24T11:35:16.040Z,41.30
2019-01-24T11:37:51.188Z,41.63
2019-01-24T11:40:38.845Z,44.00
2019-01-24T11:43:03.538Z,43.80
2019-01-24T11:45:35.079Z,40.50
2019-01-24T11:48:08.487Z,51.35
2019-01-24T11:50:39.832Z,46.87
2019-01-24T11:53:12.622Z,45.27
2019-01-24T11:55:54.222Z,42.73
2019-01-24T11:58:22.360Z,44.57
2019-01-24T12:00:57.388Z,44.98
2019-01-24T12:03:39.080Z,44.85
2019-01-24T12:06:15.923Z,43.02
2019-01-24T12:08:48.906Z,44.77
2019-01-24T12:11:21.482Z,44.33
2019-01-24T12:13:49.725Z,46.92
2019-01-24T12:16:25.020Z,43.03
2019-01-24T12:18:54.824Z,43.30
2019-01-24T12:21:26.224Z,46.40
2019-01-24T12:23:59.879Z,44.67
2019-01-24T12:26:54.391Z,45.85
2019-01-24T12:29:21.440Z,45.50
2019-01-24T12:31:49.516Z,43.57
2019-01-24T12:34:17.638Z,47.67
2019-01-24T12:36:45.707Z,44.17
2019-01-24T12:39:13.860Z,45.33
2019-01-24T12:41:41.935Z,45.25
2019-01-24T12:44:10.021Z,45.63
2019-01-24T12:46:38.053Z,47.62
2019-01-24T12:49:06.077Z,44.43
2019-01-24T12:51:34.265Z,44.63
2019-01-24T12:54:02.513Z,49.57
2019-01-24T12:56:30.666Z,46.57
2019-01-24T12:58:58.852Z,44.90
2019-01-24T13:01:26.993Z,45.80
2019-01-24T13:03:55.061Z,44.40
2019-01-24T13:06:23.201Z,45.23
2019-01-24T13:08:51.955Z,42.43
2019-01-24T13:11:20.078Z,44.93
2019-01-24T13:13:48.192Z,44.70
2019-01-24T13:16:16.348Z,46.20
2019-01-24T13:18:48.124Z,42.80
2019-01-24T13:21:16.092Z,41.02
2019-01-24T13:23:44.168Z,44.87
2019-01-24T13:26:13.057Z,45.10
2019-01-24T13:28:42.802Z,44.90
2019-01-24T13:31:11.200Z,41.05
2019-01-24T13:33:39.315Z,45.48
2019-01-24T13:36:07.472Z,43.13
2019-01-24T13:38:35.548Z,44.63
2019-01-24T13:41:03.915Z,43.93
2019-01-24T13:43:32.240Z,42.55
2019-01-24T13:46:00.579Z,45.40
2019-01-24T13:48:28.958Z,43.80
2019-01-24T13:51:00.791Z,44.63
2019-01-24T13:53:29.273Z,44.77
2019-01-24T13:55:57.639Z,44.23
2019-01-24T13:58:26.116Z,43.63
2019-01-24T14:00:54.444Z,41.10
2019-01-24T14:03:28.933Z,45.17
2019-01-24T14:05:57.337Z,43.90
2019-01-24T14:08:25.657Z,42.80
2019-01-24T14:10:53.979Z,43.50
2019-01-24T14:13:22.250Z,41.10
2019-01-24T14:15:53.905Z,41.93
2019-01-24T14:18:22.232Z,41.13
2019-01-24T14:20:53.539Z,41.57
2019-01-24T14:23:21.976Z,44.77
2019-01-24T14:25:54.549Z,44.00
2019-01-24T14:28:22.835Z,41.43
2019-01-24T14:30:52.784Z,43.57
2019-01-24T14:33:22.015Z,42.15
2019-01-24T14:35:50.386Z,42.97
2019-01-24T14:38:22.912Z,41.35
2019-01-24T14:40:51.356Z,41.13
2019-01-24T14:43:28.492Z,40.27
2019-01-24T14:46:01.744Z,39.33
2019-01-24T14:48:31.116Z,41.13
2019-01-24T14:50:59.674Z,41.17
2019-01-24T14:53:29.962Z,39.38
2019-01-24T14:55:58.537Z,41.40
2019-01-24T14:58:26.855Z,38.75
2019-01-24T15:00:58.724Z,40.17
2019-01-24T15:03:38.024Z,40.97
2019-01-24T15:06:01.538Z,38.90
2019-01-24T15:08:34.003Z,41.53
2019-01-24T15:11:02.358Z,41.07
2019-01-24T15:13:37.885Z,42.48
2019-01-24T15:16:06.508Z,39.37
2019-01-24T15:18:36.841Z,38.70
2019-01-24T15:21:04.891Z,39.60
2019-01-24T15:23:34.416Z,42.53
2019-01-24T15:26:02.779Z,44.63
2019-01-24T15:28:31.062Z,38.97
2019-01-24T15:30:59.353Z,44.40
2019-01-24T15:33:27.770Z,41.33
2019-01-24T15:35:56.167Z,40.23
2019-01-24T15:38:24.535Z,37.50
2019-01-24T15:40:52.825Z,40.57
2019-01-24T15:43:21.129Z,40.53
2019-01-24T15:45:49.408Z,39.17
2019-01-24T15:48:17.751Z,40.23
2019-01-24T15:50:46.033Z,42.23
2019-01-24T15:53:14.364Z,40.03
2019-01-24T15:55:42.624Z,38.93
2019-01-24T15:58:10.929Z,40.73
2019-01-24T16:00:39.207Z,42.83
2019-01-24T16:03:07.483Z,42.20
2019-01-24T16:05:35.813Z,41.25
2019-01-24T16:08:04.958Z,41.40
2019-01-24T16:10:34.178Z,41.73
2019-01-24T16:13:02.655Z,42.73
2019-01-24T16:15:35.601Z,40.20
2019-01-24T16:18:05.186Z,37.93
2019-01-24T16:20:34.533Z,39.07
2019-01-24T16:23:02.852Z,43.25
2019-01-24T16:25:33.001Z,39.15
2019-01-24T16:28:11.805Z,39.95
2019-01-24T16:30:40.255Z,41.03
2019-01-24T16:33:09.277Z,39.00
2019-01-24T16:35:37.798Z,41.60
2019-01-24T16:38:09.656Z,37.27
2019-01-24T16:40:36.384Z,39.60
2019-01-24T16:43:05.362Z,39.73
2019-01-24T16:45:35.367Z,38.53
2019-01-24T16:48:03.676Z,38.93
2019-01-24T16:50:31.940Z,37.60
2019-01-24T16:53:00.332Z,37.30
2019-01-24T16:55:28.659Z,40.90
2019-01-24T16:58:02.931Z,36.60
2019-01-24T17:00:42.226Z,41.97
2019-01-24T17:03:10.593Z,40.10
2019-01-24T17:05:38.971Z,40.23
2019-01-24T17:08:07.410Z,38.37
2019-01-24T17:10:35.793Z,39.45
2019-01-24T17:13:04.446Z,48.23
2019-01-24T17:15:39.694Z,39.48
2019-01-24T17:18:05.565Z,39.23
2019-01-24T17:20:34.180Z,42.77
2019-01-24T17:23:02.502Z,38.73
2019-01-24T17:25:33.612Z,37.73
2019-01-24T17:28:01.932Z,48.37
2019-01-24T17:33:26.088Z,36.87
2019-01-24T17:35:55.309Z,36.93
2019-01-24T17:38:24.114Z,38.13
2019-01-24T17:40:53.173Z,44.98
2019-01-24T17:43:21.565Z,37.90
2019-01-24T17:45:49.917Z,35.77
2019-01-24T17:48:18.261Z,39.23
2019-01-24T17:50:58.620Z,37.40
2019-01-24T17:53:16.579Z,35.63
2019-01-24T17:55:48.477Z,38.40
2019-01-24T17:58:16.955Z,36.30
2019-01-24T18:00:57.377Z,42.53
2019-01-24T18:03:27.346Z,37.40
2019-01-24T18:06:09.282Z,38.43
2019-01-24T18:08:38.147Z,36.60
2019-01-24T18:11:06.652Z,37.87
2019-01-24T18:13:36.614Z,37.80
2019-01-24T18:16:07.272Z,39.30
2019-01-24T18:18:35.605Z,40.13
2019-01-24T18:21:05.672Z,37.90
2019-01-24T18:23:34.466Z,39.65
2019-01-24T18:26:02.828Z,37.53
2019-01-24T18:28:31.096Z,40.93
2019-01-24T18:31:03.924Z,37.63
2019-01-24T18:33:32.522Z,40.00
2019-01-24T18:36:01.439Z,37.50
2019-01-24T18:38:40.807Z,36.80
2019-01-24T18:41:09.306Z,38.85
2019-01-24T18:43:37.713Z,37.87
2019-01-24T18:46:16.616Z,37.48
2019-01-24T18:48:46.614Z,35.23
2019-01-24T18:51:15.062Z,37.55
2019-01-24T18:53:43.545Z,36.77
2019-01-24T18:56:13.472Z,38.12
2019-01-24T18:58:41.821Z,38.73
2019-01-24T19:01:13.229Z,36.77
2019-01-24T19:03:41.492Z,37.95
2019-01-24T19:06:11.378Z,38.23
2019-01-24T19:08:45.889Z,37.10
2019-01-24T19:11:09.750Z,38.23
2019-01-24T19:13:38.159Z,36.57
2019-01-24T19:16:17.110Z,38.10
2019-01-24T19:18:45.443Z,36.67
2019-01-24T19:21:21.372Z,37.67
2019-01-24T19:24:04.112Z,38.50
2019-01-24T19:26:32.489Z,40.33
2019-01-24T19:29:00.766Z,36.80
2019-01-24T19:31:33.752Z,35.53
2019-01-24T19:34:02.037Z,35.88
2019-01-24T19:36:34.079Z,36.60
2019-01-24T19:39:02.521Z,37.25
2019-01-24T19:41:31.017Z,40.57
2019-01-24T19:43:59.406Z,38.67
2019-01-24T19:46:27.802Z,36.00
2019-01-24T19:48:57.083Z,35.37
2019-01-24T19:51:30.206Z,38.47
2019-01-24T19:53:58.611Z,39.33
2019-01-24T19:56:27.142Z,38.33
2019-01-24T19:59:04.394Z,38.57
2019-01-24T20:01:32.855Z,36.80
2019-01-24T20:04:01.192Z,36.17
2019-01-24T20:06:38.403Z,35.60
2019-01-24T20:09:07.269Z,34.13
2019-01-24T20:11:35.784Z,40.63
2019-01-24T20:14:08.657Z,36.47
2019-01-24T20:16:36.963Z,37.90
2019-01-24T20:19:05.312Z,37.70
2019-01-24T20:21:33.651Z,35.63
2019-01-24T20:24:02.104Z,39.20
2019-01-24T20:26:32.810Z,38.08
2019-01-24T20:29:01.096Z,40.57
2019-01-24T20:31:29.398Z,40.93
2019-01-24T20:34:04.371Z,39.60
2019-01-24T20:36:32.781Z,37.10
2019-01-24T20:39:11.709Z,38.30
2019-01-24T20:41:45.880Z,38.93
2019-01-24T20:47:48.887Z,44.40
2019-01-24T20:50:25.541Z,40.50
2019-01-24T20:52:55.913Z,39.77
2019-01-24T20:55:24.472Z,39.70
2019-01-24T20:57:56.972Z,38.38
2019-01-24T21:00:29.349Z,40.27
2019-01-24T21:02:59.332Z,41.93
2019-01-24T21:05:30.953Z,41.53
2019-01-24T21:07:59.375Z,42.13
2019-01-24T21:10:31.827Z,41.77
2019-01-24T21:13:09.849Z,42.53
2019-01-24T21:19:07.930Z,38.83
2019-01-24T21:21:36.386Z,42.37
2019-01-24T21:24:05.319Z,41.93
2019-01-24T21:26:33.801Z,40.17
2019-01-24T21:29:03.744Z,40.97
2019-01-24T21:31:33.281Z,45.90
2019-01-24T21:34:06.101Z,44.33
2019-01-24T21:36:34.436Z,44.10
2019-01-24T21:41:37.325Z,42.00
2019-01-24T21:44:10.702Z,40.33
2019-01-24T21:46:39.115Z,40.50
2019-01-24T21:49:07.504Z,45.63
2019-01-24T21:51:40.841Z,45.63
2019-01-24T21:54:09.290Z,41.70
2019-01-24T21:56:37.768Z,41.70
2019-01-24T21:59:10.739Z,39.87
2019-01-24T22:01:39.103Z,39.10
2019-01-24T22:04:07.407Z,44.63
2019-01-24T22:06:47.117Z,41.23
2019-01-24T22:09:12.809Z,39.92
2019-01-24T22:11:52.403Z,39.27
2019-01-24T22:14:24.029Z,42.13
2019-01-24T22:16:52.365Z,42.63
2019-01-24T22:19:20.680Z,51.18
2019-01-24T22:21:49.095Z,40.67
2019-01-24T22:24:17.521Z,42.58
2019-01-24T22:26:46.113Z,41.90
2019-01-24T22:29:14.506Z,40.27
2019-01-24T22:32:00.058Z,40.50
2019-01-24T22:34:15.096Z,39.23
2019-01-24T22:36:43.732Z,39.90
2019-01-24T22:39:12.222Z,41.67
2019-01-24T22:41:40.602Z,38.37
2019-01-24T22:44:09.016Z,40.57
2019-01-24T22:46:45.226Z,40.20
2019-01-24T22:49:10.239Z,40.25
2019-01-24T22:51:38.555Z,41.67
2019-01-24T22:54:06.846Z,40.10
2019-01-24T22:56:35.483Z,41.40
2019-01-24T22:59:05.582Z,42.27
2019-01-24T23:01:37.189Z,41.00
2019-01-24T23:04:07.414Z,49.63
2019-01-24T23:06:35.693Z,41.80
2019-01-24T23:09:07.648Z,41.87
2019-01-24T23:11:35.920Z,41.90
2019-01-24T23:14:06.201Z,39.10
2019-01-24T23:16:34.330Z,38.13
2019-01-24T23:19:02.585Z,39.50
2019-01-24T23:21:30.877Z,41.20
2019-01-24T23:23:59.330Z,42.63
2019-01-24T23:26:37.211Z,42.88
2019-01-24T23:29:02.678Z,39.47
2019-01-24T23:31:32.618Z,39.17
2019-01-24T23:34:00.916Z,37.83
2019-01-24T23:36:29.272Z,41.37
2019-01-24T23:38:57.664Z,40.38
2019-01-24T23:41:26.030Z,41.73
2019-01-24T23:43:54.287Z,40.33
2019-01-24T23:46:22.635Z,42.57
2019-01-24T23:48:50.942Z,41.37
2019-01-24T23:51:19.302Z,37.93
2019-01-24T23:53:48.404Z,39.55
2019-01-24T23:56:16.768Z,39.90
2019-01-24T23:58:45.299Z,37.93
